Time;durP1;ratioP1;P1;durP2;ratioP2;P2;SDS_P1;SDS_P2;PMS_P1;PMS_P2;Temp;Humidity;BMP_temperature;BMP_pressure;BME280_temperature;BME280_humidity;BME280_pressure;Samples;Min_cycle;Max_cycle;Signal;HPM_P1;HPM_P2
2022/07/30 00:02:15;;;;;;;5.57;4.72;;;;;;;18.55;72.62;98316.44;5033720;28;20525;-76
2022/07/30 00:04:41;;;;;;;5.35;4.68;;;;;;;18.58;72.42;98306.59;5035751;28;20029;-74
2022/07/30 00:07:07;;;;;;;5.55;4.63;;;;;;;18.57;72.55;98310.53;5036515;28;20025;-76
2022/07/30 00:09:33;;;;;;;5.95;5.35;;;;;;;18.58;72.29;98312.13;5038112;28;20028;-75
2022/07/30 00:11:59;;;;;;;6.03;5.40;;;;;;;18.58;72.77;98307.41;5036048;28;20021;-75
2022/07/30 00:14:25;;;;;;;6.20;5.60;;;;;;;18.59;72.53;98310.97;5032531;28;20021;-75
2022/07/30 00:16:51;;;;;;;7.60;6.07;;;;;;;18.62;72.51;98304.72;5031257;28;20017;-75
2022/07/30 00:19:16;;;;;;;6.78;6.07;;;;;;;18.63;72.54;98298.00;5031536;28;20061;-76
2022/07/30 00:21:42;;;;;;;6.78;6.07;;;;;;;18.66;72.47;98300.06;5031284;28;20037;-75
2022/07/30 00:24:07;;;;;;;7.15;6.32;;;;;;;18.65;72.33;98295.69;5035912;28;20048;-75
2022/07/30 00:26:33;;;;;;;8.68;6.35;;;;;;;18.64;72.37;98302.41;5035842;28;20065;-75
2022/07/30 00:28:58;;;;;;;8.25;6.47;;;;;;;18.64;72.73;98298.81;5034121;28;20033;-75
2022/07/30 00:31:24;;;;;;;7.63;5.95;;;;;;;18.63;72.58;98300.00;5034152;28;20036;-76
2022/07/30 00:33:49;;;;;;;6.20;5.60;;;;;;;18.60;72.79;98295.94;5032776;28;20093;-75
2022/07/30 00:36:14;;;;;;;7.10;5.30;;;;;;;18.60;72.38;98295.94;5031112;28;20045;-76
2022/07/30 00:38:40;;;;;;;5.50;5.00;;;;;;;18.58;72.14;98290.75;5029605;28;20112;-75
2022/07/30 00:41:05;;;;;;;5.85;5.28;;;;;;;18.57;72.32;98286.34;5030749;28;20440;-75
2022/07/30 00:43:31;;;;;;;5.57;4.85;;;;;;;18.57;72.20;98280.78;5030750;28;20036;-75
2022/07/30 00:45:56;;;;;;;6.20;4.90;;;;;;;18.57;72.09;98288.31;5031395;28;20021;-75
2022/07/30 00:48:21;;;;;;;5.53;4.97;;;;;;;18.56;72.13;98278.34;5029494;28;20022;-75
2022/07/30 00:50:47;;;;;;;5.65;5.15;;;;;;;18.52;71.95;98278.28;5029118;28;20037;-76
2022/07/30 00:53:12;;;;;;;7.05;5.78;;;;;;;18.49;72.36;98261.53;5029782;28;20148;-75
2022/07/30 00:55:38;;;;;;;7.88;5.88;;;;;;;18.45;72.03;98261.41;5033859;28;20063;-75
2022/07/30 00:58:03;;;;;;;6.88;5.95;;;;;;;18.41;71.92;98264.09;5031934;28;20381;-75
2022/07/30 01:00:29;;;;;;;6.88;5.72;;;;;;;18.36;72.17;98253.25;5029146;28;20683;-76
2022/07/30 01:02:54;;;;;;;6.05;5.15;;;;;;;18.31;71.79;98247.94;5026268;28;20025;-76
2022/07/30 01:05:20;;;;;;;7.47;4.97;;;;;;;18.29;72.23;98250.25;5026448;28;20037;-75
2022/07/30 01:07:45;;;;;;;6.25;5.57;;;;;;;18.28;72.22;98240.31;5033296;28;20036;-76
2022/07/30 01:10:14;;;;;;;5.72;4.65;;;;;;;18.27;72.01;98231.19;5030377;28;20386;-77
2022/07/30 01:12:41;;;;;;;5.25;4.75;;;;;;;18.28;72.18;98231.97;5029513;28;20048;-76
2022/07/30 01:15:08;;;;;;;6.93;4.82;;;;;;;18.29;72.04;98223.31;5031637;28;20040;-76
2022/07/30 01:17:35;;;;;;;5.40;4.55;;;;;;;18.27;72.17;98228.41;5028764;28;20036;-76
2022/07/30 01:20:18;;;;;;;4.72;4.13;;;;;;;18.26;72.13;98223.19;5027322;28;20510;-76
2022/07/30 01:22:57;;;;;;;4.65;4.15;;;;;;;18.27;72.05;98219.25;5027443;28;20025;-75
2022/07/30 01:25:31;;;;;;;5.65;4.55;;;;;;;18.25;72.14;98224.34;5027724;28;20501;-76
2022/07/30 01:28:14;;;;;;;7.00;4.80;;;;;;;18.26;72.07;98223.19;5030812;28;20037;-76
2022/07/30 01:30:41;;;;;;;5.28;4.78;;;;;;;18.26;72.24;98229.56;5030397;28;20501;-76
2022/07/30 01:33:11;;;;;;;5.47;4.85;;;;;;;18.26;71.82;98237.06;5031061;28;20493;-76
2022/07/30 01:35:38;;;;;;;5.47;4.97;;;;;;;18.25;72.12;98230.72;5031449;28;20092;-76
2022/07/30 01:38:06;;;;;;;7.05;5.22;;;;;;;18.27;72.06;98238.69;5030992;28;20029;-76
2022/07/30 01:40:33;;;;;;;6.05;5.00;;;;;;;18.25;72.15;98239.06;5030599;28;20107;-75
2022/07/30 01:43:01;;;;;;;5.65;4.95;;;;;;;18.25;72.37;98241.00;5030795;28;20378;-75
2022/07/30 01:45:29;;;;;;;5.95;5.35;;;;;;;18.25;72.18;98243.78;5031129;28;20036;-76
2022/07/30 01:47:59;;;;;;;7.07;4.95;;;;;;;18.26;72.16;98240.69;5030812;28;21510;-76
2022/07/30 01:50:26;;;;;;;6.28;5.57;;;;;;;18.27;72.29;98228.41;5030521;28;20030;-76
2022/07/30 01:52:54;;;;;;;6.00;4.93;;;;;;;18.29;72.44;98223.31;5030652;28;20025;-75
2022/07/30 01:55:25;;;;;;;6.47;5.13;;;;;;;18.31;72.25;98231.28;5030892;28;20026;-76
2022/07/30 01:57:54;;;;;;;7.47;5.10;;;;;;;18.32;72.31;98227.34;5030696;28;20030;-76
2022/07/30 02:00:21;;;;;;;5.53;5.00;;;;;;;18.34;72.35;98233.34;5030739;28;20038;-76
2022/07/30 02:02:47;;;;;;;5.80;5.15;;;;;;;18.34;72.33;98233.34;5029108;28;20298;-76
2022/07/30 02:05:13;;;;;;;6.30;4.88;;;;;;;18.35;72.30;98231.34;5031259;28;20053;-76
2022/07/30 02:07:47;;;;;;;6.00;5.05;;;;;;;18.34;72.42;98236.13;5030075;28;20140;-77
2022/07/30 02:10:41;;;;;;;6.13;4.93;;;;;;;18.35;72.14;98239.69;5030947;28;20034;-76
2022/07/30 02:13:07;;;;;;;7.00;5.53;;;;;;;18.35;72.36;98232.19;5031068;28;20108;-76
2022/07/30 02:15:48;;;;;;;5.15;4.65;;;;;;;18.35;72.04;98236.91;5031254;28;20486;-76
2022/07/30 02:18:55;;;;;;;7.75;5.03;;;;;;;18.34;72.35;98238.09;5030754;28;20030;-74
2022/07/30 02:21:23;;;;;;;5.10;4.38;;;;;;;18.36;72.46;98232.97;5032093;28;20041;-73
2022/07/30 02:23:52;;;;;;;5.57;4.80;;;;;;;18.35;72.38;98231.34;5033727;28;20032;-74
2022/07/30 02:26:21;;;;;;;7.13;4.95;;;;;;;18.36;72.49;98233.81;5030731;28;20028;-74
2022/07/30 02:28:51;;;;;;;6.75;5.07;;;;;;;18.33;72.67;98230.94;5034117;28;20025;-74
2022/07/30 02:31:23;;;;;;;6.03;4.88;;;;;;;18.34;72.25;98230.56;5034300;28;20032;-76
2022/07/30 02:33:52;;;;;;;6.18;4.70;;;;;;;18.36;72.56;98224.66;5033118;28;20030;-76
2022/07/30 02:36:18;;;;;;;5.45;4.93;;;;;;;18.36;72.40;98225.47;5030659;28;20112;-76
2022/07/30 02:38:45;;;;;;;5.97;4.78;;;;;;;18.36;72.58;98224.66;5029992;28;20029;-76
2022/07/30 02:41:12;;;;;;;5.32;4.82;;;;;;;18.34;72.53;98219.47;5030260;28;20033;-76
2022/07/30 02:43:40;;;;;;;6.10;4.55;;;;;;;18.36;72.77;98219.91;5030174;28;20017;-76
2022/07/30 02:46:08;;;;;;;6.63;4.88;;;;;;;18.35;72.97;98209.16;5030365;28;20038;-76
2022/07/30 02:48:37;;;;;;;7.80;5.07;;;;;;;18.33;72.61;98212.28;5028802;28;20036;-76
2022/07/30 02:51:04;;;;;;;5.53;4.95;;;;;;;18.37;72.65;98212.38;5030754;28;20033;-76
2022/07/30 02:53:30;;;;;;;7.13;4.78;;;;;;;18.38;72.59;98208.44;5030714;28;20021;-77
2022/07/30 02:55:56;;;;;;;5.82;5.00;;;;;;;18.38;72.94;98200.13;5030681;28;20109;-77
2022/07/30 02:58:24;;;;;;;7.38;5.40;;;;;;;18.37;72.87;98202.09;5030147;28;20100;-75
2022/07/30 03:00:52;;;;;;;6.28;5.35;;;;;;;18.40;72.74;98204.16;5030706;28;20026;-75
2022/07/30 03:03:19;;;;;;;6.60;5.90;;;;;;;18.41;72.91;98203.00;5030455;28;20037;-76
2022/07/30 03:05:48;;;;;;;6.63;5.93;;;;;;;18.42;72.75;98204.63;5031243;28;20394;-76
2022/07/30 03:08:15;;;;;;;8.45;6.40;;;;;;;18.43;72.78;98206.25;5034048;28;20021;-76
2022/07/30 03:10:43;;;;;;;6.20;5.28;;;;;;;18.42;72.76;98195.47;5030501;28;20041;-76
2022/07/30 03:13:11;;;;;;;6.53;5.82;;;;;;;18.42;72.75;98198.25;5030611;28;20048;-76
2022/07/30 03:15:42;;;;;;;9.70;6.03;;;;;;;18.42;72.82;98203.81;5030865;28;20024;-75
2022/07/30 03:18:12;;;;;;;9.10;6.70;;;;;;;18.40;72.78;98195.03;5030298;28;20029;-76
2022/07/30 03:20:38;;;;;;;9.50;7.43;;;;;;;18.35;72.64;98190.53;5028716;28;20034;-76
2022/07/30 03:23:05;;;;;;;9.15;6.70;;;;;;;18.34;72.99;98202.81;5033800;28;20025;-76
2022/07/30 03:25:32;;;;;;;10.07;7.07;;;;;;;18.33;72.85;98186.53;5035053;28;20492;-75
2022/07/30 03:28:02;;;;;;;9.43;6.88;;;;;;;18.34;73.07;98194.47;5031939;28;20013;-76
2022/07/30 03:30:29;;;;;;;9.13;6.55;;;;;;;18.35;72.97;98198.88;5030708;28;20036;-76
2022/07/30 03:32:55;;;;;;;8.00;6.95;;;;;;;18.35;73.08;98195.28;5030753;28;20029;-77
2022/07/30 03:35:23;;;;;;;9.90;7.07;;;;;;;18.28;72.92;98193.13;5030189;28;20036;-76
2022/07/30 03:37:50;;;;;;;12.30;7.18;;;;;;;18.25;73.06;98194.66;5030753;28;20024;-76
2022/07/30 03:40:17;;;;;;;11.02;7.00;;;;;;;18.25;73.08;98205.75;5028164;28;20051;-76
2022/07/30 03:42:44;;;;;;;8.25;7.25;;;;;;;18.29;73.13;98219.72;5030729;28;20034;-76
2022/07/30 03:45:14;;;;;;;8.82;7.30;;;;;;;18.28;73.29;98207.00;5031118;28;20039;-76
2022/07/30 03:47:41;;;;;;;11.15;7.20;;;;;;;18.27;72.90;98210.94;5029909;28;20049;-77
2022/07/30 03:50:08;;;;;;;8.68;6.95;;;;;;;18.29;73.17;98219.72;5030004;28;20026;-77
2022/07/30 03:52:37;;;;;;;10.68;7.95;;;;;;;18.34;73.35;98215.91;5029176;28;20034;-76
2022/07/30 03:55:05;;;;;;;11.95;9.07;;;;;;;18.36;73.24;98213.53;5029331;28;20033;-76
2022/07/30 03:57:31;;;;;;;13.57;9.20;;;;;;;18.35;73.23;98215.53;5029499;28;20500;-76
2022/07/30 03:59:57;;;;;;;13.38;9.35;;;;;;;18.38;73.26;98214.81;5028289;28;20029;-76
2022/07/30 04:02:23;;;;;;;11.48;9.13;;;;;;;18.39;73.31;98208.09;5029882;28;20521;-76
2022/07/30 04:04:48;;;;;;;14.80;11.52;;;;;;;18.43;73.33;98216.53;5030190;28;20065;-76
2022/07/30 04:07:13;;;;;;;13.80;10.75;;;;;;;18.43;73.25;98219.28;5029521;28;20029;-76
2022/07/30 04:09:39;;;;;;;11.80;9.75;;;;;;;18.48;73.36;98213.50;5028456;28;20379;-76
2022/07/30 04:12:05;;;;;;;12.70;10.13;;;;;;;18.52;73.33;98211.63;5027505;28;20034;-75
2022/07/30 04:14:42;;;;;;;12.13;9.55;;;;;;;18.59;73.31;98208.22;5030430;28;20446;-76
2022/07/30 04:17:19;;;;;;;13.35;10.45;;;;;;;18.67;73.17;98217.56;5030410;28;20082;-76
2022/07/30 04:20:08;;;;;;;11.95;9.10;;;;;;;18.75;73.40;98205.47;5028489;28;20128;-76
2022/07/30 04:22:35;;;;;;;8.75;7.72;;;;;;;18.81;73.42;98201.25;5024085;28;20029;-76
2022/07/30 04:25:02;;;;;;;10.00;8.30;;;;;;;18.88;73.45;98197.88;5030603;28;20544;-77
2022/07/30 04:27:29;;;;;;;9.45;8.02;;;;;;;18.95;73.41;98200.81;5029369;28;20026;-76
2022/07/30 04:29:55;;;;;;;8.63;7.38;;;;;;;19.03;73.38;98202.63;5028730;28;20025;-76
2022/07/30 04:32:21;;;;;;;9.50;7.18;;;;;;;19.14;73.42;98205.69;5029394;28;20096;-76
2022/07/30 04:34:51;;;;;;;7.78;6.78;;;;;;;19.20;73.26;98200.66;5030122;28;20156;-76
2022/07/30 04:37:19;;;;;;;8.55;7.07;;;;;;;19.28;73.42;98199.66;5030120;28;20033;-77
2022/07/30 04:39:45;;;;;;;8.85;7.15;;;;;;;19.34;73.08;98202.97;5029609;28;20120;-77
2022/07/30 04:42:11;;;;;;;7.57;6.82;;;;;;;19.43;73.22;98206.38;5028547;28;20108;-77
2022/07/30 04:44:37;;;;;;;9.25;6.75;;;;;;;19.48;73.09;98210.81;5030290;28;20033;-76
2022/07/30 04:47:03;;;;;;;8.50;6.35;;;;;;;19.49;72.76;98206.88;5030193;28;20042;-77
2022/07/30 04:49:29;;;;;;;7.97;6.88;;;;;;;19.52;72.78;98208.94;5028520;28;20029;-77
2022/07/30 04:51:55;;;;;;;7.53;6.40;;;;;;;19.56;72.60;98218.16;5029433;28;20478;-77
2022/07/30 04:54:23;;;;;;;7.15;6.28;;;;;;;19.57;72.66;98225.34;5028751;28;20116;-76
2022/07/30 04:56:50;;;;;;;9.18;7.22;;;;;;;19.56;72.61;98225.72;5029439;28;20079;-76
2022/07/30 04:59:17;;;;;;;8.73;6.47;;;;;;;19.56;72.51;98225.72;5029636;28;20033;-76
2022/07/30 05:01:45;;;;;;;9.20;6.60;;;;;;;19.57;72.56;98224.53;5031400;28;20029;-76
2022/07/30 05:04:11;;;;;;;8.88;7.00;;;;;;;19.61;72.35;98225.41;5033679;28;20036;-76
2022/07/30 05:06:38;;;;;;;10.98;7.20;;;;;;;19.69;72.44;98229.97;5033901;28;20029;-77
2022/07/30 05:09:05;;;;;;;9.15;8.02;;;;;;;19.71;72.50;98227.66;5032797;28;20537;-77
2022/07/30 05:11:31;;;;;;;9.25;7.80;;;;;;;19.76;72.52;98223.78;5033348;28;20033;-76
2022/07/30 05:13:56;;;;;;;8.48;7.63;;;;;;;19.79;72.43;98226.63;5033745;28;20152;-76
2022/07/30 05:16:21;;;;;;;9.20;7.60;;;;;;;19.85;72.34;98221.59;5033810;28;20691;-77
2022/07/30 05:18:47;;;;;;;10.43;8.43;;;;;;;19.91;72.40;98219.38;5033055;28;20045;-77
2022/07/30 05:21:12;;;;;;;9.10;8.00;;;;;;;19.93;71.93;98211.47;5033342;28;20163;-77
2022/07/30 05:23:38;;;;;;;8.00;7.18;;;;;;;19.93;72.13;98208.69;5033640;28;20025;-76
2022/07/30 05:26:03;;;;;;;9.70;7.35;;;;;;;19.99;72.16;98207.19;5033593;28;20025;-77
2022/07/30 05:28:29;;;;;;;8.68;7.30;;;;;;;20.03;72.07;98201.72;5033584;28;20017;-77
2022/07/30 05:30:54;;;;;;;9.40;7.65;;;;;;;20.07;71.99;98199.81;5031498;28;20057;-77
2022/07/30 05:33:21;;;;;;;8.50;6.55;;;;;;;20.12;71.65;98195.91;5033545;28;20473;-77
2022/07/30 05:35:48;;;;;;;9.07;7.20;;;;;;;20.16;71.90;98194.03;5032890;28;20104;-76
2022/07/30 05:38:13;;;;;;;10.15;7.13;;;;;;;20.18;71.86;98194.47;5033246;28;20036;-76
2022/07/30 05:40:39;;;;;;;8.85;6.93;;;;;;;20.12;71.59;98182.81;5032664;28;20033;-77
2022/07/30 05:43:05;;;;;;;8.65;7.05;;;;;;;20.12;71.66;98195.91;5031241;28;20474;-76
2022/07/30 05:45:30;;;;;;;8.98;6.85;;;;;;;20.11;71.64;98192.34;5031864;28;20048;-77
2022/07/30 05:47:56;;;;;;;9.50;7.03;;;;;;;20.16;71.66;98189.28;5031185;28;20041;-77
2022/07/30 05:50:21;;;;;;;10.70;6.97;;;;;;;20.22;71.54;98187.78;5032582;28;20105;-76
2022/07/30 05:52:47;;;;;;;7.88;6.43;;;;;;;20.27;71.78;98188.66;5032792;28;20029;-76
2022/07/30 05:55:13;;;;;;;8.68;6.72;;;;;;;20.29;71.57;98200.22;5033164;28;20032;-77
2022/07/30 05:57:40;;;;;;;8.98;6.78;;;;;;;20.29;71.40;98197.44;5033114;28;20033;-76
2022/07/30 06:00:08;;;;;;;9.05;7.13;;;;;;;20.32;71.37;98191.97;5033740;28;20038;-77
2022/07/30 06:02:34;;;;;;;11.57;6.65;;;;;;;20.37;71.34;98196.41;5030877;28;20180;-76
2022/07/30 06:04:59;;;;;;;8.93;6.53;;;;;;;20.44;71.48;98192.94;5032293;28;20159;-77
2022/07/30 06:07:25;;;;;;;8.23;6.75;;;;;;;20.49;71.25;98198.22;5032458;28;20055;-77
2022/07/30 06:09:50;;;;;;;10.35;6.97;;;;;;;20.55;71.52;98195.97;5032120;28;20032;-77
2022/07/30 06:12:16;;;;;;;8.45;6.75;;;;;;;20.62;71.38;98202.47;5031519;28;20385;-77
2022/07/30 06:14:41;;;;;;;8.73;6.50;;;;;;;20.76;71.27;98195.53;5032044;28;20471;-77
2022/07/30 06:17:07;;;;;;;8.70;7.00;;;;;;;20.92;71.35;98189.88;5032047;28;20793;-77
2022/07/30 06:19:32;;;;;;;6.78;6.07;;;;;;;21.02;71.19;98192.00;5030963;28;20049;-77
2022/07/30 06:21:58;;;;;;;9.05;6.88;;;;;;;21.10;71.13;98193.75;5030717;28;20030;-77
2022/07/30 06:24:23;;;;;;;7.90;6.32;;;;;;;21.17;71.01;98190.28;5032400;28;20049;-77
2022/07/30 06:26:48;;;;;;;7.10;6.28;;;;;;;21.22;70.87;98192.72;5032565;28;20057;-77
2022/07/30 06:29:14;;;;;;;8.57;6.10;;;;;;;21.29;70.75;98191.25;5032169;28;20108;-77
2022/07/30 06:31:40;;;;;;;7.85;6.28;;;;;;;21.38;70.67;98189.81;5031734;28;20078;-77
2022/07/30 06:34:06;;;;;;;7.97;6.22;;;;;;;21.41;70.28;98188.25;5032551;28;20036;-77
2022/07/30 06:36:31;;;;;;;10.27;5.93;;;;;;;21.48;70.16;98196.72;5031947;28;20044;-77
2022/07/30 06:38:57;;;;;;;6.50;5.63;;;;;;;21.57;70.04;98188.06;5031716;28;20030;-77
2022/07/30 06:41:22;;;;;;;6.53;5.82;;;;;;;21.69;70.13;98185.09;5032334;28;20374;-77
2022/07/30 06:43:49;;;;;;;7.25;5.80;;;;;;;21.79;69.81;98180.03;5031650;28;21327;-77
2022/07/30 06:46:15;;;;;;;8.98;6.65;;;;;;;21.95;69.64;98172.25;5031845;28;20032;-77
2022/07/30 06:48:41;;;;;;;7.35;5.60;;;;;;;22.07;69.35;98170.41;5030726;28;20033;-77
2022/07/30 06:51:06;;;;;;;6.25;5.55;;;;;;;22.23;69.51;98173.78;5029734;28;20030;-76
2022/07/30 06:53:31;;;;;;;7.80;6.22;;;;;;;22.33;69.24;98171.47;5030479;28;20037;-77
2022/07/30 06:55:57;;;;;;;9.23;6.78;;;;;;;22.42;68.90;98164.41;5032438;28;20149;-77
2022/07/30 06:58:22;;;;;;;6.70;6.00;;;;;;;22.52;68.78;98174.13;5032997;28;20056;-77
2022/07/30 07:00:48;;;;;;;7.20;5.63;;;;;;;22.59;68.69;98174.19;5034047;28;20037;-77
2022/07/30 07:03:13;;;;;;;7.43;5.53;;;;;;;22.68;68.49;98187.03;5033196;28;20030;-77
2022/07/30 07:05:39;;;;;;;8.57;6.32;;;;;;;22.69;68.06;98183.06;5031650;28;20440;-77
2022/07/30 07:08:04;;;;;;;6.35;5.60;;;;;;;22.64;67.22;98183.41;5030779;28;20033;-77
2022/07/30 07:10:30;;;;;;;7.13;5.80;;;;;;;22.64;67.21;98183.41;5031343;28;20029;-77
2022/07/30 07:12:55;;;;;;;8.13;6.10;;;;;;;22.74;67.29;98179.91;5031370;28;20040;-77
2022/07/30 07:15:21;;;;;;;8.50;6.50;;;;;;;22.83;66.98;98180.41;5031749;28;20454;-77
2022/07/30 07:17:46;;;;;;;9.32;6.70;;;;;;;22.94;66.85;98182.50;5031664;28;20026;-81
2022/07/30 07:20:12;;;;;;;12.77;7.53;;;;;;;23.01;66.72;98183.34;5031243;28;20072;-77
2022/07/30 07:22:37;;;;;;;8.70;6.78;;;;;;;23.13;66.53;98185.03;5031131;28;20040;-77
2022/07/30 07:25:03;;;;;;;7.75;6.75;;;;;;;23.19;66.16;98172.31;5029962;28;20474;-77
2022/07/30 07:27:29;;;;;;;8.93;6.57;;;;;;;23.29;66.08;98175.59;5031172;28;20053;-78
2022/07/30 07:29:55;;;;;;;7.88;6.30;;;;;;;23.40;65.72;98167.28;5031240;28;20029;-77
2022/07/30 07:32:20;;;;;;;11.20;7.13;;;;;;;23.43;65.43;98167.31;5031221;28;20531;-77
2022/07/30 07:34:45;;;;;;;7.78;6.63;;;;;;;23.45;65.42;98164.91;5031179;28;20033;-77
2022/07/30 07:37:11;;;;;;;8.75;6.55;;;;;;;23.45;65.02;98162.09;5029932;28;20021;-77
2022/07/30 07:39:36;;;;;;;7.13;6.43;;;;;;;23.49;64.62;98159.34;5030642;28;20117;-77
2022/07/30 07:42:03;;;;;;;9.60;6.97;;;;;;;23.49;64.56;98162.13;5030960;28;20116;-77
2022/07/30 07:44:28;;;;;;;8.02;6.63;;;;;;;23.49;64.56;98156.53;5031308;28;20030;-77
2022/07/30 07:46:54;;;;;;;9.50;7.20;;;;;;;23.52;64.59;98149.34;5030821;28;20104;-77
2022/07/30 07:49:19;;;;;;;8.23;6.15;;;;;;;23.58;64.53;98151.41;5030785;28;20037;-77
2022/07/30 07:51:45;;;;;;;7.85;7.05;;;;;;;23.62;64.24;98154.22;5030926;28;20025;-77
2022/07/30 07:54:10;;;;;;;7.47;6.68;;;;;;;23.69;64.24;98154.25;5030601;28;20486;-77
2022/07/30 07:56:35;;;;;;;9.27;6.60;;;;;;;23.81;64.01;98153.09;5030752;28;20167;-77
2022/07/30 07:59:01;;;;;;;7.93;7.00;;;;;;;23.93;63.93;98152.75;5030598;28;20167;-77
2022/07/30 08:01:26;;;;;;;8.85;6.68;;;;;;;24.04;63.85;98154.84;5032148;28;20117;-77
2022/07/30 08:03:52;;;;;;;7.82;6.20;;;;;;;24.12;63.44;98153.66;5030135;28;20469;-77
2022/07/30 08:06:17;;;;;;;7.57;6.85;;;;;;;24.21;63.32;98150.50;5029621;28;20025;-77
2022/07/30 08:08:42;;;;;;;7.45;6.20;;;;;;;24.30;63.03;98152.91;5030106;28;20048;-77
2022/07/30 08:11:09;;;;;;;7.53;6.60;;;;;;;24.38;63.19;98154.53;5029143;28;20248;-77
2022/07/30 08:13:36;;;;;;;7.53;6.72;;;;;;;24.46;63.08;98155.34;5032302;28;20466;-78
2022/07/30 08:16:02;;;;;;;8.88;6.53;;;;;;;24.49;62.68;98152.53;5030476;28;20478;-77
2022/07/30 08:18:27;;;;;;;7.70;6.22;;;;;;;24.52;63.01;98159.38;5030513;28;20548;-78
2022/07/30 08:20:53;;;;;;;8.73;6.35;;;;;;;24.45;62.30;98150.94;5030449;28;20033;-78
2022/07/30 08:23:21;;;;;;;7.05;6.20;;;;;;;24.37;62.37;98153.72;5030182;28;20033;-79
2022/07/30 08:25:46;;;;;;;7.25;6.25;;;;;;;24.36;62.04;98149.31;5030418;28;20115;-79
2022/07/30 08:28:12;;;;;;;7.65;6.50;;;;;;;24.40;62.41;98151.31;5030409;28;20053;-79
2022/07/30 08:30:37;;;;;;;8.68;7.15;;;;;;;24.39;62.19;98139.31;5030263;28;20030;-79
2022/07/30 08:33:02;;;;;;;9.18;6.80;;;;;;;24.40;62.31;98134.50;5029258;28;20104;-78
2022/07/30 08:35:28;;;;;;;8.30;6.97;;;;;;;24.38;62.08;98138.50;5031624;28;20547;-78
2022/07/30 08:37:53;;;;;;;8.05;6.03;;;;;;;24.43;62.01;98139.31;5033800;28;20025;-78
2022/07/30 08:40:19;;;;;;;8.20;6.47;;;;;;;24.53;61.69;98142.13;5033699;28;20033;-79
2022/07/30 08:42:46;;;;;;;8.77;7.72;;;;;;;24.58;61.87;98135.34;5032802;28;20037;-79
2022/07/30 08:45:13;;;;;;;8.32;7.43;;;;;;;24.67;61.87;98134.94;5033534;28;20493;-78
2022/07/30 08:47:40;;;;;;;8.27;6.78;;;;;;;24.68;61.07;98131.72;5033549;28;20033;-78
2022/07/30 08:50:06;;;;;;;7.55;6.50;;;;;;;24.70;60.96;98136.94;5033290;28;20533;-79
2022/07/30 08:52:35;;;;;;;7.68;6.88;;;;;;;24.73;60.63;98141.78;5036293;28;20028;-78
2022/07/30 08:55:01;;;;;;;8.83;6.90;;;;;;;24.80;61.13;98136.19;5033074;28;20156;-78
2022/07/30 08:57:30;;;;;;;8.20;6.45;;;;;;;24.92;60.93;98139.78;5033056;28;20108;-77
2022/07/30 08:59:58;;;;;;;8.27;6.20;;;;;;;25.05;60.34;98143.78;5032626;28;20029;-78
2022/07/30 09:02:24;;;;;;;9.23;6.55;;;;;;;25.17;60.56;98142.56;5033537;28;20113;-77
2022/07/30 09:04:49;;;;;;;8.23;6.55;;;;;;;25.21;60.39;98136.97;5032871;28;20104;-77
2022/07/30 09:07:15;;;;;;;8.02;6.28;;;;;;;25.29;60.07;98135.72;5034126;28;20024;-79
2022/07/30 09:09:40;;;;;;;8.20;6.32;;;;;;;25.39;59.81;98125.72;5035017;28;20064;-79
2022/07/30 09:12:30;;;;;;;8.77;6.07;;;;;;;25.48;59.32;98128.13;5032354;28;20132;-79
2022/07/30 09:15:08;;;;;;;7.68;6.40;;;;;;;25.61;58.81;98134.91;5033353;28;20039;-79
2022/07/30 09:17:59;;;;;;;7.85;6.10;;;;;;;25.65;58.94;98132.88;5030986;28;20021;-79
2022/07/30 09:20:35;;;;;;;7.80;6.43;;;;;;;25.76;57.30;98137.66;5029918;28;20060;-78
2022/07/30 09:23:03;;;;;;;6.57;5.95;;;;;;;25.80;57.84;98139.25;5032982;28;20123;-78
2022/07/30 09:25:41;;;;;;;7.47;6.53;;;;;;;25.90;57.42;98139.59;5031881;28;20104;-78
2022/07/30 09:28:09;;;;;;;7.78;6.03;;;;;;;25.98;57.16;98138.34;5032443;28;20029;-78
2022/07/30 09:30:55;;;;;;;8.10;6.15;;;;;;;25.97;56.95;98136.75;5031550;28;20037;-78
2022/07/30 09:33:38;;;;;;;8.60;6.82;;;;;;;25.90;55.80;98140.41;5029791;28;20083;-79
2022/07/30 09:36:05;;;;;;;9.45;7.35;;;;;;;25.90;56.56;98142.41;5030652;28;20048;-77
2022/07/30 09:38:50;;;;;;;9.15;7.65;;;;;;;25.89;56.59;98143.59;5034219;28;20034;-77
2022/07/30 09:41:18;;;;;;;10.27;8.35;;;;;;;25.84;56.36;98142.03;5032805;28;20017;-77
2022/07/30 09:43:49;;;;;;;9.40;8.40;;;;;;;25.80;56.81;98144.88;5033976;28;20025;-79
2022/07/30 09:46:15;;;;;;;8.80;7.88;;;;;;;25.79;56.92;98134.84;5031951;28;20044;-79
2022/07/30 09:48:41;;;;;;;9.50;8.38;;;;;;;25.84;57.08;98140.03;5031634;28;20025;-77
2022/07/30 09:51:07;;;;;;;9.65;8.55;;;;;;;25.87;56.88;98135.59;5032066;28;20021;-77
2022/07/30 09:53:35;;;;;;;9.75;8.75;;;;;;;25.98;56.31;98138.34;5031079;28;20028;-77
2022/07/30 09:56:25;;;;;;;9.45;8.45;;;;;;;25.93;55.36;98131.16;5031607;28;20414;-80
2022/07/30 09:58:50;;;;;;;10.70;9.55;;;;;;;25.92;55.34;98134.38;5032223;28;20115;-78
2022/07/30 10:01:16;;;;;;;10.50;9.00;;;;;;;25.92;54.99;98132.38;5031206;28;20490;-79
2022/07/30 10:03:42;;;;;;;11.15;9.38;;;;;;;25.96;55.64;98124.72;5031583;28;20025;-75
2022/07/30 10:06:08;;;;;;;9.68;8.70;;;;;;;26.03;55.66;98118.28;5031226;28;20025;-76
2022/07/30 10:08:42;;;;;;;10.85;8.75;;;;;;;26.10;55.87;98126.66;5033301;28;20040;-75
2022/07/30 10:11:21;;;;;;;9.95;8.95;;;;;;;26.14;55.65;98119.06;5031599;28;20068;-75
2022/07/30 10:13:48;;;;;;;11.85;9.77;;;;;;;26.19;54.86;98120.63;5030933;28;20565;-78
2022/07/30 10:16:14;;;;;;;10.52;9.25;;;;;;;26.17;54.92;98122.25;5031199;28;20513;-76
2022/07/30 10:18:41;;;;;;;8.80;7.95;;;;;;;26.27;55.33;98129.81;5032071;28;20068;-77
2022/07/30 10:21:07;;;;;;;9.38;8.32;;;;;;;26.33;55.54;98130.97;5030054;28;20112;-76
2022/07/30 10:23:34;;;;;;;9.40;8.50;;;;;;;26.17;54.37;98127.88;5032297;28;20145;-78
2022/07/30 10:25:59;;;;;;;9.98;8.98;;;;;;;26.04;54.19;98127.50;5032007;28;20044;-78
2022/07/30 10:28:26;;;;;;;9.70;8.65;;;;;;;25.90;54.92;98126.38;5031664;28;20471;-76
2022/07/30 10:30:52;;;;;;;10.23;9.15;;;;;;;25.76;54.78;98124.41;5031495;28;20087;-77
2022/07/30 10:33:21;;;;;;;9.10;8.20;;;;;;;25.65;55.07;98120.84;5031335;28;20094;-77
2022/07/30 10:35:46;;;;;;;11.90;10.15;;;;;;;25.49;54.85;98119.28;5030789;28;20036;-76
2022/07/30 10:38:14;;;;;;;10.18;9.07;;;;;;;25.32;55.11;98131.34;5029462;28;20025;-77
2022/07/30 10:41:00;;;;;;;9.77;8.82;;;;;;;25.17;55.52;98131.34;5029877;28;20045;-75
2022/07/30 10:43:44;;;;;;;10.68;9.57;;;;;;;25.06;55.68;98128.56;5028404;28;20026;-76
2022/07/30 10:46:40;;;;;;;10.18;9.15;;;;;;;24.95;55.94;98130.56;5030772;28;21357;-77
2022/07/30 10:49:15;;;;;;;13.85;11.68;;;;;;;24.70;56.99;98134.16;5028977;28;20029;-76
2022/07/30 10:51:45;;;;;;;10.77;9.73;;;;;;;24.44;57.08;98135.31;5033106;28;20390;-76
2022/07/30 10:54:32;;;;;;;11.52;9.98;;;;;;;24.17;57.69;98144.84;5032064;28;20083;-76
2022/07/30 10:57:16;;;;;;;15.70;11.40;;;;;;;24.01;58.14;98142.41;5030223;28;20697;-77
2022/07/30 10:59:54;;;;;;;13.07;10.90;;;;;;;23.90;58.64;98139.53;5061258;28;20025;-77
2022/07/30 11:02:21;;;;;;;13.30;11.85;;;;;;;23.78;59.21;98137.91;5030214;28;20029;-78
2022/07/30 11:04:47;;;;;;;12.48;11.18;;;;;;;23.69;59.11;98134.66;5030297;28;20513;-77
2022/07/30 11:07:21;;;;;;;13.57;12.00;;;;;;;23.64;59.23;98135.03;5033867;28;20021;-78
2022/07/30 11:09:51;;;;;;;14.15;12.15;;;;;;;23.61;59.67;98128.22;5030137;28;20037;-78
2022/07/30 11:12:41;;;;;;;12.95;11.65;;;;;;;23.48;59.94;98133.34;5030499;28;20082;-77
2022/07/30 11:15:08;;;;;;;13.13;11.25;;;;;;;23.32;60.39;98136.44;5032513;28;20034;-75
2022/07/30 11:18:18;;;;;;;14.20;12.70;;;;;;;23.23;60.50;98133.19;5029891;28;20470;-73
2022/07/30 11:21:12;;;;;;;15.52;13.77;;;;;;;23.10;60.92;98127.06;5033404;28;20041;-74
2022/07/30 11:23:38;;;;;;;30.90;23.48;;;;;;;22.98;61.53;98131.00;5031050;28;20108;-77
2022/07/30 11:26:04;;;;;;;26.33;19.98;;;;;;;22.80;62.56;98125.25;5033264;28;20593;-76
2022/07/30 11:28:37;;;;;;;42.03;29.27;;;;;;;22.73;62.72;98130.78;5029639;28;20025;-76
2022/07/30 11:31:24;;;;;;;34.58;27.15;;;;;;;22.62;62.72;98129.91;5029650;28;20037;-79
2022/07/30 11:33:49;;;;;;;21.13;18.90;;;;;;;22.53;63.24;98136.63;5029297;28;20037;-80
2022/07/30 11:36:15;;;;;;;19.60;17.55;;;;;;;22.41;63.48;98128.47;5030008;28;20021;-77
2022/07/30 11:39:09;;;;;;;18.92;16.90;;;;;;;22.30;63.67;98137.53;5029633;28;20028;-77